sensor_id;sensor_type;location;lat;lon;timestamp;pressure;altitude;pressure_sealevel;temperature;humidity
29879;BME280;16752;53.364;-1.488;2023-02-28T17:37:58;102280.47;;;14.86;46.78
29879;BME280;16752;53.364;-1.488;2023-02-28T17:44:03;102280.34;;;15.52;45.57
29879;BME280;16752;53.364;-1.488;2023-02-28T17:47:12;102279.63;;;15.66;45.31
29879;BME280;16752;53.364;-1.488;2023-02-28T17:56:08;102279.16;;;15.57;45.21
29879;BME280;16752;53.364;-1.488;2023-02-28T17:59:01;102292.28;;;14.79;47.02
29879;BME280;16752;53.364;-1.488;2023-02-28T18:21:29;102317.66;;;14.64;47.28
29879;BME280;16752;53.364;-1.488;2023-02-28T18:26:52;102319.25;;;15.01;45.95
29879;BME280;16752;53.364;-1.488;2023-02-28T18:29:55;102318.91;;;15.07;45.77
29879;BME280;16752;53.364;-1.488;2023-02-28T18:43:24;102321.72;;;15.04;45.75
29879;BME280;16752;53.364;-1.488;2023-02-28T18:46:08;102326.06;;;15.05;45.24
29879;BME280;16752;53.364;-1.488;2023-02-28T18:55:06;102340.06;;;14.73;45.90
29879;BME280;16752;53.364;-1.488;2023-02-28T18:57:56;102341.97;;;14.53;46.68
29879;BME280;16752;53.364;-1.488;2023-02-28T20:14:34;102361.31;;;15.04;46.33
29879;BME280;16752;53.364;-1.488;2023-02-28T20:17:26;102364.91;;;14.68;47.35
29879;BME280;16752;53.364;-1.488;2023-02-28T20:26:17;102374.69;;;14.84;46.45
29879;BME280;16752;53.364;-1.488;2023-02-28T20:32:33;102375.84;;;14.44;47.54
29879;BME280;16752;53.364;-1.488;2023-02-28T20:34:59;102375.44;;;14.34;47.75
29879;BME280;16752;53.364;-1.488;2023-02-28T20:37:35;102373.44;;;14.74;46.77
29879;BME280;16752;53.364;-1.488;2023-02-28T20:40:33;102367.47;;;14.17;48.60
29879;BME280;16752;53.364;-1.488;2023-02-28T20:43:04;102371.03;;;14.69;46.97
29879;BME280;16752;53.364;-1.488;2023-02-28T20:45:29;102364.84;;;14.17;48.32
29879;BME280;16752;53.364;-1.488;2023-02-28T20:48:08;102362.31;;;14.32;48.03
29879;BME280;16752;53.364;-1.488;2023-02-28T20:50:58;102366.34;;;14.40;47.62
29879;BME280;16752;53.364;-1.488;2023-02-28T20:53:29;102365.63;;;14.55;47.04
29879;BME280;16752;53.364;-1.488;2023-02-28T20:56:12;102356.06;;;14.70;46.75
29879;BME280;16752;53.364;-1.488;2023-02-28T20:58:55;102359.78;;;14.65;46.65
29879;BME280;16752;53.364;-1.488;2023-02-28T21:01:37;102354.06;;;13.85;47.98
29879;BME280;16752;53.364;-1.488;2023-02-28T21:04:33;102357.06;;;14.32;47.47
29879;BME280;16752;53.364;-1.488;2023-02-28T21:07:06;102360.19;;;14.75;46.25
29879;BME280;16752;53.364;-1.488;2023-02-28T21:09:53;102354.59;;;14.81;46.22
29879;BME280;16752;53.364;-1.488;2023-02-28T21:12:17;102359.38;;;14.90;46.12
29879;BME280;16752;53.364;-1.488;2023-02-28T21:14:45;102352.88;;;14.80;46.31
29879;BME280;16752;53.364;-1.488;2023-02-28T21:17:11;102354.19;;;14.89;46.27
29879;BME280;16752;53.364;-1.488;2023-02-28T21:19:39;102355.97;;;14.88;45.88
29879;BME280;16752;53.364;-1.488;2023-02-28T21:22:07;102352.63;;;14.85;46.12
29879;BME280;16752;53.364;-1.488;2023-02-28T21:24:41;102355.50;;;14.97;46.02
29879;BME280;16752;53.364;-1.488;2023-02-28T21:27:11;102345.34;;;14.73;46.28
29879;BME280;16752;53.364;-1.488;2023-02-28T21:29:43;102348.53;;;14.45;47.05
29879;BME280;16752;53.364;-1.488;2023-02-28T21:32:22;102359.66;;;14.15;47.97
29879;BME280;16752;53.364;-1.488;2023-02-28T21:34:59;102358.50;;;14.38;47.68
29879;BME280;16752;53.364;-1.488;2023-02-28T21:37:35;102354.94;;;14.22;47.68
29879;BME280;16752;53.364;-1.488;2023-02-28T21:40:32;102361.97;;;14.57;46.92
29879;BME280;16752;53.364;-1.488;2023-02-28T21:43:00;102354.50;;;14.65;46.74
29879;BME280;16752;53.364;-1.488;2023-02-28T21:45:32;102359.25;;;14.23;47.71
29879;BME280;16752;53.364;-1.488;2023-02-28T21:48:00;102359.94;;;14.45;47.48
29879;BME280;16752;53.364;-1.488;2023-02-28T21:50:42;102365.47;;;14.58;46.96
29879;BME280;16752;53.364;-1.488;2023-02-28T21:53:07;102366.56;;;14.54;47.18
29879;BME280;16752;53.364;-1.488;2023-02-28T21:55:33;102362.13;;;14.54;47.23
29879;BME280;16752;53.364;-1.488;2023-02-28T21:57:59;102361.81;;;14.78;46.57
29879;BME280;16752;53.364;-1.488;2023-02-28T22:00:27;102362.25;;;14.86;46.45
29879;BME280;16752;53.364;-1.488;2023-02-28T22:02:53;102364.28;;;14.81;46.50
29879;BME280;16752;53.364;-1.488;2023-02-28T22:05:18;102362.66;;;14.61;46.90
29879;BME280;16752;53.364;-1.488;2023-02-28T22:07:43;102371.09;;;14.50;47.26
29879;BME280;16752;53.364;-1.488;2023-02-28T22:10:09;102369.81;;;14.76;46.76
29879;BME280;16752;53.364;-1.488;2023-02-28T22:12:34;102368.91;;;14.93;46.23
29879;BME280;16752;53.364;-1.488;2023-02-28T22:15:00;102375.81;;;14.07;48.43
29879;BME280;16752;53.364;-1.488;2023-02-28T22:17:25;102365.13;;;14.47;47.46
29879;BME280;16752;53.364;-1.488;2023-02-28T22:19:51;102373.13;;;14.80;46.49
29879;BME280;16752;53.364;-1.488;2023-02-28T22:22:16;102380.03;;;14.12;48.29
29879;BME280;16752;53.364;-1.488;2023-02-28T22:24:42;102375.38;;;14.17;47.92
29879;BME280;16752;53.364;-1.488;2023-02-28T22:27:07;102384.09;;;14.36;47.56
29879;BME280;16752;53.364;-1.488;2023-02-28T22:29:33;102375.78;;;14.62;46.53
29879;BME280;16752;53.364;-1.488;2023-02-28T22:32:01;102378.72;;;14.56;46.91
29879;BME280;16752;53.364;-1.488;2023-02-28T22:34:29;102366.94;;;14.63;46.24
29879;BME280;16752;53.364;-1.488;2023-02-28T22:36:57;102367.06;;;14.43;46.78
29879;BME280;16752;53.364;-1.488;2023-02-28T22:39:22;102377.41;;;14.65;46.39
29879;BME280;16752;53.364;-1.488;2023-02-28T22:41:48;102381.81;;;14.82;45.91
29879;BME280;16752;53.364;-1.488;2023-02-28T22:44:13;102380.25;;;14.43;47.00
29879;BME280;16752;53.364;-1.488;2023-02-28T22:46:40;102382.00;;;14.43;47.20
29879;BME280;16752;53.364;-1.488;2023-02-28T22:49:05;102376.97;;;14.38;46.91
29879;BME280;16752;53.364;-1.488;2023-02-28T22:51:33;102382.31;;;14.00;48.21
29879;BME280;16752;53.364;-1.488;2023-02-28T22:53:59;102378.19;;;14.67;46.58
29879;BME280;16752;53.364;-1.488;2023-02-28T22:56:32;102381.97;;;14.44;47.13
29879;BME280;16752;53.364;-1.488;2023-02-28T22:59:05;102375.13;;;14.40;47.02
29879;BME280;16752;53.364;-1.488;2023-02-28T23:01:31;102373.13;;;14.45;47.07
29879;BME280;16752;53.364;-1.488;2023-02-28T23:04:06;102377.81;;;14.57;46.56
29879;BME280;16752;53.364;-1.488;2023-02-28T23:06:36;102382.75;;;14.63;46.57
29879;BME280;16752;53.364;-1.488;2023-02-28T23:09:12;102377.03;;;14.19;47.69
29879;BME280;16752;53.364;-1.488;2023-02-28T23:11:42;102379.19;;;14.64;46.76
29879;BME280;16752;53.364;-1.488;2023-02-28T23:14:11;102378.53;;;14.42;47.19
29879;BME280;16752;53.364;-1.488;2023-02-28T23:16:48;102373.53;;;14.55;46.92
29879;BME280;16752;53.364;-1.488;2023-02-28T23:19:18;102381.91;;;14.63;46.48
29879;BME280;16752;53.364;-1.488;2023-02-28T23:21:50;102384.03;;;14.37;47.60
29879;BME280;16752;53.364;-1.488;2023-02-28T23:24:16;102376.44;;;14.31;47.48
29879;BME280;16752;53.364;-1.488;2023-02-28T23:26:43;102374.75;;;14.12;48.33
29879;BME280;16752;53.364;-1.488;2023-02-28T23:29:10;102374.78;;;14.29;47.59
29879;BME280;16752;53.364;-1.488;2023-02-28T23:31:39;102382.09;;;14.41;47.30
29879;BME280;16752;53.364;-1.488;2023-02-28T23:34:08;102381.03;;;14.45;47.05
29879;BME280;16752;53.364;-1.488;2023-02-28T23:36:50;102377.59;;;14.07;47.69
29879;BME280;16752;53.364;-1.488;2023-02-28T23:39:20;102380.44;;;14.57;46.77
29879;BME280;16752;53.364;-1.488;2023-02-28T23:45:01;102382.84;;;14.62;46.69
